createdAt,value
2019-02-21T00:03:10.821Z,7.17
2019-02-21T00:08:18.501Z,7.04
2019-02-21T00:13:26.113Z,7.85
2019-02-21T00:18:33.837Z,7.45
2019-02-21T00:23:41.453Z,8.10
2019-02-21T00:28:49.274Z,8.79
2019-02-21T00:33:59.178Z,9.00
2019-02-21T00:39:06.876Z,9.36
2019-02-21T00:44:14.603Z,9.99
2019-02-21T00:49:22.514Z,10.33
2019-02-21T00:54:30.193Z,9.92
2019-02-21T00:59:37.851Z,10.15
2019-02-21T01:04:45.642Z,10.30
2019-02-21T01:09:53.395Z,10.39
2019-02-21T01:15:01.014Z,10.85
2019-02-21T01:20:08.823Z,10.90
2019-02-21T01:25:16.650Z,11.57
2019-02-21T01:30:24.294Z,10.99
2019-02-21T01:35:31.877Z,11.62
2019-02-21T01:40:39.730Z,11.06
2019-02-21T01:45:48.317Z,11.45
2019-02-21T01:50:56.177Z,11.56
2019-02-21T01:56:03.993Z,10.78
2019-02-21T02:01:11.720Z,10.89
2019-02-21T02:06:19.384Z,10.83
2019-02-21T02:11:26.866Z,11.10
2019-02-21T02:16:34.578Z,16.53
2019-02-21T02:21:42.212Z,15.70
2019-02-21T02:26:49.942Z,10.87
2019-02-21T02:31:57.778Z,10.64
2019-02-21T02:37:05.498Z,11.03
2019-02-21T02:42:13.154Z,10.99
2019-02-21T02:47:20.811Z,11.18
2019-02-21T02:52:28.498Z,10.85
2019-02-21T02:57:36.963Z,10.37
2019-02-21T03:02:44.790Z,10.68
2019-02-21T03:07:52.478Z,10.29
2019-02-21T03:13:00.216Z,10.50
2019-02-21T03:18:08.009Z,10.64
2019-02-21T03:23:15.690Z,10.70
2019-02-21T03:28:23.281Z,11.07
2019-02-21T03:33:31.230Z,11.14
2019-02-21T03:38:38.975Z,11.21
2019-02-21T03:43:46.721Z,11.21
2019-02-21T03:48:55.257Z,11.38
2019-02-21T03:54:02.957Z,16.38
2019-02-21T03:59:10.678Z,11.42
2019-02-21T04:04:18.470Z,12.43
2019-02-21T04:09:26.119Z,12.30
2019-02-21T04:14:33.710Z,18.60
2019-02-21T04:19:41.414Z,12.16
2019-02-21T04:24:49.005Z,13.07
2019-02-21T04:29:56.770Z,13.01
2019-02-21T04:35:04.406Z,13.03
2019-02-21T04:40:12.124Z,13.58
2019-02-21T04:45:19.836Z,13.82
2019-02-21T04:50:27.711Z,13.60
2019-02-21T04:55:35.438Z,13.66
2019-02-21T05:00:43.053Z,13.70
2019-02-21T05:05:50.722Z,13.96
2019-02-21T05:10:58.535Z,13.81
2019-02-21T05:16:06.292Z,13.94
2019-02-21T05:21:14.060Z,14.25
2019-02-21T05:26:21.772Z,13.91
2019-02-21T05:31:29.326Z,14.20
2019-02-21T05:36:36.918Z,13.83
2019-02-21T05:41:44.770Z,13.90
2019-02-21T05:46:52.652Z,14.49
2019-02-21T05:52:00.254Z,14.29
2019-02-21T05:57:08.098Z,13.86
2019-02-21T06:02:15.825Z,14.29
2019-02-21T06:07:23.466Z,14.34
2019-02-21T06:12:33.938Z,14.37
2019-02-21T06:17:38.365Z,14.45
2019-02-21T06:22:46.067Z,14.30
2019-02-21T06:27:53.722Z,14.44
2019-02-21T06:33:04.921Z,21.52
2019-02-21T06:38:08.581Z,14.89
2019-02-21T06:43:16.187Z,14.41
2019-02-21T06:48:23.844Z,14.86
2019-02-21T06:53:31.637Z,21.30
2019-02-21T06:58:39.402Z,14.95
2019-02-21T07:03:47.421Z,14.64
2019-02-21T07:08:55.061Z,15.02
2019-02-21T07:14:02.699Z,14.42
2019-02-21T07:19:10.962Z,14.20
2019-02-21T07:24:18.189Z,14.18
2019-02-21T07:29:25.538Z,15.33
2019-02-21T07:34:33.138Z,16.42
2019-02-21T07:39:40.778Z,15.84
2019-02-21T07:44:48.595Z,16.53
2019-02-21T07:49:56.293Z,16.10
2019-02-21T07:55:04.078Z,14.86
2019-02-21T08:00:11.872Z,14.78
2019-02-21T08:05:19.486Z,14.62
2019-02-21T08:10:33.664Z,14.56
2019-02-21T08:15:34.385Z,14.82
2019-02-21T08:20:42.115Z,15.10
2019-02-21T08:25:49.827Z,15.58
2019-02-21T08:30:58.200Z,15.21
2019-02-21T08:36:04.806Z,15.66
2019-02-21T08:41:14.624Z,16.39
2019-02-21T08:46:20.560Z,16.27
2019-02-21T08:51:28.321Z,17.04
2019-02-21T08:56:37.106Z,16.58
2019-02-21T09:01:44.769Z,16.67
2019-02-21T09:06:52.441Z,16.80
2019-02-21T09:12:00.218Z,16.26
2019-02-21T09:17:07.882Z,15.89
2019-02-21T09:22:15.511Z,15.71
2019-02-21T09:27:23.292Z,15.35
2019-02-21T09:32:30.946Z,15.00
2019-02-21T09:37:38.637Z,14.86
2019-02-21T09:42:46.309Z,13.69
2019-02-21T09:47:54.065Z,13.42
2019-02-21T09:53:01.725Z,13.65
2019-02-21T09:58:09.295Z,13.91
2019-02-21T10:03:17.145Z,13.30
2019-02-21T10:08:24.734Z,13.42
2019-02-21T10:13:32.722Z,13.09
2019-02-21T10:18:40.366Z,13.86
2019-02-21T10:23:48.469Z,13.55
2019-02-21T10:28:56.070Z,12.90
2019-02-21T10:34:03.868Z,13.22
2019-02-21T10:39:11.450Z,13.09
2019-02-21T10:44:19.062Z,12.58
2019-02-21T10:49:26.666Z,13.11
2019-02-21T10:54:34.523Z,13.18
2019-02-21T10:59:46.678Z,13.38
2019-02-21T11:04:54.950Z,13.09
2019-02-21T11:09:56.675Z,13.44
2019-02-21T11:15:04.278Z,13.43
2019-02-21T11:20:11.859Z,13.35
2019-02-21T11:25:19.562Z,13.96
2019-02-21T11:30:28.183Z,13.87
2019-02-21T11:35:35.962Z,14.18
2019-02-21T11:40:43.794Z,14.14
2019-02-21T11:45:53.918Z,13.93
2019-02-21T11:50:58.687Z,14.09
2019-02-21T11:56:06.322Z,14.15
2019-02-21T12:01:14.113Z,14.77
2019-02-21T12:06:21.717Z,14.34
2019-02-21T12:11:29.528Z,14.95
2019-02-21T12:16:37.190Z,14.91
2019-02-21T12:21:44.847Z,15.26
2019-02-21T12:26:52.513Z,15.51
2019-02-21T12:32:00.686Z,15.66
2019-02-21T12:37:08.366Z,15.36
2019-02-21T12:42:16.281Z,15.76
2019-02-21T12:47:23.886Z,16.45
2019-02-21T12:52:31.584Z,16.22
2019-02-21T12:57:39.206Z,16.42
2019-02-21T13:02:46.863Z,17.05
2019-02-21T13:07:54.506Z,16.54
2019-02-21T13:13:02.214Z,17.07
2019-02-21T13:18:15.922Z,16.62
2019-02-21T13:23:17.076Z,16.62
2019-02-21T13:28:24.857Z,16.98
2019-02-21T13:33:32.519Z,16.46
2019-02-21T13:38:40.150Z,15.92
2019-02-21T13:43:47.926Z,15.45
2019-02-21T13:48:55.785Z,16.59
2019-02-21T13:54:03.553Z,15.70
2019-02-21T13:59:11.290Z,16.93
2019-02-21T14:04:19.062Z,16.61
2019-02-21T14:09:26.785Z,18.35
2019-02-21T14:14:34.486Z,17.99
2019-02-21T14:19:42.297Z,17.00
2019-02-21T14:24:51.024Z,16.56
2019-02-21T14:29:58.646Z,16.78
2019-02-21T14:35:06.612Z,16.47
2019-02-21T14:40:14.266Z,18.10
2019-02-21T14:45:21.942Z,17.91
2019-02-21T14:50:29.587Z,19.94
2019-02-21T14:55:37.229Z,16.78
2019-02-21T15:00:45.045Z,16.67
2019-02-21T15:05:52.847Z,17.03
2019-02-21T15:11:00.411Z,16.58
2019-02-21T15:16:08.097Z,15.91
2019-02-21T15:21:15.855Z,15.89
2019-02-21T15:26:24.607Z,15.19
2019-02-21T15:31:32.230Z,15.13
2019-02-21T15:36:40.129Z,15.28
2019-02-21T15:41:47.793Z,14.40
2019-02-21T15:46:55.970Z,15.84
2019-02-21T15:52:03.580Z,15.34
2019-02-21T15:57:13.095Z,15.22
2019-02-21T16:02:18.599Z,15.23
2019-02-21T16:07:26.391Z,13.93
2019-02-21T16:12:34.482Z,14.22
2019-02-21T16:17:41.951Z,13.36
2019-02-21T16:22:49.746Z,12.95
2019-02-21T16:27:57.297Z,12.92
2019-02-21T16:33:04.908Z,12.57
2019-02-21T16:43:20.709Z,12.20
2019-02-21T16:48:28.519Z,12.19
2019-02-21T16:53:36.156Z,11.69
2019-02-21T16:58:43.978Z,11.12
2019-02-21T17:03:51.618Z,12.20
2019-02-21T17:08:59.515Z,12.10
2019-02-21T17:14:07.283Z,14.41
2019-02-21T17:19:15.188Z,13.52
2019-02-21T17:24:22.834Z,12.85
2019-02-21T17:29:30.534Z,12.91
2019-02-21T17:34:38.085Z,12.64
2019-02-21T17:39:45.908Z,13.37
2019-02-21T17:44:53.482Z,13.31
2019-02-21T17:50:01.200Z,14.53
2019-02-21T17:55:08.968Z,14.87
2019-02-21T18:00:17.318Z,14.76
2019-02-21T18:05:24.178Z,14.13
2019-02-21T18:10:31.826Z,14.52
2019-02-21T18:15:39.493Z,14.46
2019-02-21T18:20:47.221Z,13.56
2019-02-21T18:25:54.933Z,13.92
2019-02-21T18:31:02.782Z,13.69
2019-02-21T18:36:10.486Z,14.41
2019-02-21T18:41:18.242Z,14.19
2019-02-21T18:46:25.918Z,13.87
2019-02-21T18:51:33.633Z,14.17
2019-02-21T18:56:41.399Z,14.80
2019-02-21T19:01:49.021Z,14.56
2019-02-21T19:06:56.734Z,14.90
2019-02-21T19:12:04.373Z,14.28
2019-02-21T19:17:12.174Z,14.36
2019-02-21T19:22:19.913Z,14.61
2019-02-21T19:27:36.932Z,14.95
2019-02-21T19:32:34.965Z,14.75
2019-02-21T19:37:42.612Z,13.41
2019-02-21T19:42:50.403Z,12.54
2019-02-21T19:47:58.137Z,11.83
2019-02-21T19:53:06.022Z,12.37
2019-02-21T19:58:13.677Z,11.87
2019-02-21T20:03:21.638Z,11.74
2019-02-21T20:08:29.287Z,11.58
2019-02-21T20:13:37.237Z,11.26
2019-02-21T20:18:45.042Z,17.02
2019-02-21T20:23:52.823Z,11.34
2019-02-21T20:29:00.609Z,12.66
2019-02-21T20:34:08.345Z,19.52
2019-02-21T20:39:16.375Z,14.12
2019-02-21T20:44:24.321Z,13.73
2019-02-21T20:49:32.898Z,13.76
2019-02-21T20:54:40.772Z,15.83
2019-02-21T20:59:48.353Z,15.31
2019-02-21T21:04:56.058Z,17.56
2019-02-21T21:10:03.704Z,17.33
2019-02-21T21:15:12.171Z,16.82
2019-02-21T21:20:19.842Z,17.50
2019-02-21T21:25:27.640Z,17.90
2019-02-21T21:30:35.390Z,18.33
2019-02-21T21:35:43.145Z,17.88
2019-02-21T21:40:50.857Z,19.48
2019-02-21T21:45:58.497Z,19.52
2019-02-21T21:51:06.218Z,19.05
2019-02-21T21:56:14.064Z,19.36
2019-02-21T22:01:21.674Z,19.26
2019-02-21T22:06:30.206Z,18.84
2019-02-21T22:11:37.838Z,20.14
2019-02-21T22:16:45.702Z,20.36
2019-02-21T22:21:53.457Z,19.89
2019-02-21T22:27:02.073Z,19.73
2019-02-21T22:32:09.870Z,29.49
2019-02-21T22:37:17.610Z,20.34
2019-02-21T22:42:25.182Z,29.01
2019-02-21T22:47:33.025Z,19.75
2019-02-21T22:52:40.800Z,18.71
2019-02-21T22:57:48.443Z,18.68
2019-02-21T23:02:56.044Z,18.75
2019-02-21T23:08:03.729Z,18.39
2019-02-21T23:13:11.497Z,18.86
2019-02-21T23:18:19.470Z,17.97
2019-02-21T23:23:27.179Z,18.70
2019-02-21T23:28:34.846Z,19.18
2019-02-21T23:33:42.553Z,18.12
2019-02-21T23:38:50.338Z,18.68
2019-02-21T23:43:58.125Z,19.18
2019-02-21T23:49:05.798Z,18.20
2019-02-21T23:54:13.491Z,17.56
2019-02-21T23:59:21.242Z,18.21
